sensor_id;sensor_type;location;lat;lon;timestamp;pressure;altitude;pressure_sealevel;temperature;humidity
64544;BME280;50936;51.660;5.616;2023-11-21T00:00:06;100679.66;;;25.63;43.55
64544;BME280;50936;51.660;5.616;2023-11-21T00:02:58;100687.31;;;25.61;43.61
64544;BME280;50936;51.660;5.616;2023-11-21T00:05:46;100685.59;;;25.60;43.57
64544;BME280;50936;51.660;5.616;2023-11-21T00:08:33;100692.41;;;25.58;43.79
64544;BME280;50936;51.660;5.616;2023-11-21T00:11:20;100689.84;;;25.56;43.73
64544;BME280;50936;51.660;5.616;2023-11-21T00:14:08;100694.94;;;25.52;43.51
64544;BME280;50936;51.660;5.616;2023-11-21T00:16:55;100697.28;;;25.49;43.95
64544;BME280;50936;51.660;5.616;2023-11-21T00:19:42;100700.03;;;25.49;43.84
64544;BME280;50936;51.660;5.616;2023-11-21T00:22:29;100703.00;;;25.47;43.75
64544;BME280;50936;51.660;5.616;2023-11-21T00:25:17;100699.81;;;25.44;43.84
64544;BME280;50936;51.660;5.616;2023-11-21T00:28:04;100696.00;;;25.45;43.89
64544;BME280;50936;51.660;5.616;2023-11-21T00:30:52;100697.50;;;25.41;43.82
64544;BME280;50936;51.660;5.616;2023-11-21T00:33:40;100695.13;;;25.38;43.70
64544;BME280;50936;51.660;5.616;2023-11-21T00:36:27;100697.88;;;25.38;44.05
64544;BME280;50936;51.660;5.616;2023-11-21T00:39:15;100704.66;;;25.35;43.79
64544;BME280;50936;51.660;5.616;2023-11-21T00:42:02;100691.94;;;25.34;43.75
64544;BME280;50936;51.660;5.616;2023-11-21T00:44:51;100707.03;;;25.31;43.83
64544;BME280;50936;51.660;5.616;2023-11-21T00:47:38;100702.53;;;25.30;43.98
64544;BME280;50936;51.660;5.616;2023-11-21T00:50:26;100705.72;;;25.27;44.10
64544;BME280;50936;51.660;5.616;2023-11-21T00:53:16;100706.78;;;25.26;43.99
64544;BME280;50936;51.660;5.616;2023-11-21T00:56:04;100701.63;;;25.23;43.88
64544;BME280;50936;51.660;5.616;2023-11-21T00:58:51;100709.91;;;25.23;43.78
64544;BME280;50936;51.660;5.616;2023-11-21T01:01:39;100708.44;;;25.21;44.29
64544;BME280;50936;51.660;5.616;2023-11-21T01:04:27;100716.94;;;25.19;43.92
64544;BME280;50936;51.660;5.616;2023-11-21T01:07:14;100715.63;;;25.15;43.83
64544;BME280;50936;51.660;5.616;2023-11-21T01:10:03;100719.44;;;25.14;44.00
64544;BME280;50936;51.660;5.616;2023-11-21T01:12:54;100722.41;;;25.12;44.21
64544;BME280;50936;51.660;5.616;2023-11-21T01:15:41;100728.78;;;25.13;44.22
64544;BME280;50936;51.660;5.616;2023-11-21T01:18:28;100737.50;;;25.10;44.01
64544;BME280;50936;51.660;5.616;2023-11-21T01:21:16;100743.22;;;25.08;44.38
64544;BME280;50936;51.660;5.616;2023-11-21T01:24:03;100745.16;;;25.08;44.24
64544;BME280;50936;51.660;5.616;2023-11-21T01:26:54;100750.03;;;25.06;44.18
64544;BME280;50936;51.660;5.616;2023-11-21T01:29:41;100751.06;;;25.05;44.15
64544;BME280;50936;51.660;5.616;2023-11-21T01:32:28;100752.13;;;25.04;44.21
64544;BME280;50936;51.660;5.616;2023-11-21T01:35:15;100757.66;;;25.04;44.30
64544;BME280;50936;51.660;5.616;2023-11-21T01:38:03;100764.44;;;25.01;44.20
64544;BME280;50936;51.660;5.616;2023-11-21T01:40:50;100765.28;;;25.02;44.25
64544;BME280;50936;51.660;5.616;2023-11-21T01:43:38;100761.22;;;24.97;44.09
64544;BME280;50936;51.660;5.616;2023-11-21T01:46:25;100775.03;;;24.97;44.06
64544;BME280;50936;51.660;5.616;2023-11-21T01:49:13;100765.03;;;24.96;44.54
64544;BME280;50936;51.660;5.616;2023-11-21T01:52:02;100761.63;;;24.94;44.50
64544;BME280;50936;51.660;5.616;2023-11-21T01:54:52;100767.16;;;24.94;44.40
64544;BME280;50936;51.660;5.616;2023-11-21T01:57:39;100751.66;;;24.93;44.01
64544;BME280;50936;51.660;5.616;2023-11-21T02:00:28;100747.16;;;24.92;44.48
64544;BME280;50936;51.660;5.616;2023-11-21T02:03:16;100756.53;;;24.91;44.04
64544;BME280;50936;51.660;5.616;2023-11-21T02:06:05;100755.88;;;24.89;44.42
64544;BME280;50936;51.660;5.616;2023-11-21T02:08:52;100765.22;;;24.88;44.54
64544;BME280;50936;51.660;5.616;2023-11-21T02:11:40;100761.81;;;24.86;44.19
64544;BME280;50936;51.660;5.616;2023-11-21T02:14:27;100781.78;;;24.88;44.47
64544;BME280;50936;51.660;5.616;2023-11-21T02:17:16;100775.81;;;24.85;44.57
64544;BME280;50936;51.660;5.616;2023-11-21T02:20:05;100777.53;;;24.86;44.41
64544;BME280;50936;51.660;5.616;2023-11-21T02:22:55;100776.84;;;24.84;44.41
64544;BME280;50936;51.660;5.616;2023-11-21T02:25:47;100783.25;;;24.84;44.44
64544;BME280;50936;51.660;5.616;2023-11-21T02:28:36;100788.13;;;24.82;44.46
64544;BME280;50936;51.660;5.616;2023-11-21T02:31:25;100786.41;;;24.81;44.56
64544;BME280;50936;51.660;5.616;2023-11-21T02:34:15;100793.66;;;24.82;44.40
64544;BME280;50936;51.660;5.616;2023-11-21T02:37:03;100797.47;;;24.81;44.23
64544;BME280;50936;51.660;5.616;2023-11-21T02:39:51;100791.28;;;24.79;44.21
64544;BME280;50936;51.660;5.616;2023-11-21T02:42:39;100796.81;;;24.79;44.51
64544;BME280;50936;51.660;5.616;2023-11-21T02:45:27;100794.06;;;24.79;44.16
64544;BME280;50936;51.660;5.616;2023-11-21T02:48:14;100792.34;;;24.78;44.32
64544;BME280;50936;51.660;5.616;2023-11-21T02:51:01;100793.41;;;24.77;44.46
64544;BME280;50936;51.660;5.616;2023-11-21T02:53:49;100791.69;;;24.76;44.62
64544;BME280;50936;51.660;5.616;2023-11-21T02:56:37;100800.84;;;24.76;44.48
64544;BME280;50936;51.660;5.616;2023-11-21T02:59:26;100801.69;;;24.77;44.55
64544;BME280;50936;51.660;5.616;2023-11-21T03:02:13;100798.28;;;24.75;44.74
64544;BME280;50936;51.660;5.616;2023-11-21T03:05:02;100796.56;;;24.74;44.28
64544;BME280;50936;51.660;5.616;2023-11-21T03:07:51;100795.72;;;24.73;44.44
64544;BME280;50936;51.660;5.616;2023-11-21T03:10:39;100794.88;;;24.73;44.23
64544;BME280;50936;51.660;5.616;2023-11-21T03:13:26;100803.34;;;24.71;44.59
64544;BME280;50936;51.660;5.616;2023-11-21T03:16:15;100796.94;;;24.71;44.63
64544;BME280;50936;51.660;5.616;2023-11-21T03:19:04;100804.59;;;24.69;44.64
64544;BME280;50936;51.660;5.616;2023-11-21T03:21:51;100804.59;;;24.69;44.34
64544;BME280;50936;51.660;5.616;2023-11-21T03:24:40;100804.59;;;24.69;44.47
64544;BME280;50936;51.660;5.616;2023-11-21T03:27:30;100809.25;;;24.68;44.79
64544;BME280;50936;51.660;5.616;2023-11-21T03:30:17;100813.94;;;24.68;44.78
64544;BME280;50936;51.660;5.616;2023-11-21T03:33:04;100809.66;;;24.65;44.75
64544;BME280;50936;51.660;5.616;2023-11-21T03:35:51;100817.75;;;24.67;44.48
64544;BME280;50936;51.660;5.616;2023-11-21T03:38:40;100813.28;;;24.66;44.70
64544;BME280;50936;51.660;5.616;2023-11-21T03:41:28;100817.09;;;24.65;44.49
64544;BME280;50936;51.660;5.616;2023-11-21T03:44:15;100821.56;;;24.66;44.45
64544;BME280;50936;51.660;5.616;2023-11-21T03:47:03;100822.81;;;24.63;44.77
64544;BME280;50936;51.660;5.616;2023-11-21T03:49:50;100825.56;;;24.63;44.50
64544;BME280;50936;51.660;5.616;2023-11-21T03:52:37;100819.19;;;24.63;44.41
64544;BME280;50936;51.660;5.616;2023-11-21T03:55:25;100823.00;;;24.62;44.66
64544;BME280;50936;51.660;5.616;2023-11-21T03:58:12;100821.31;;;24.61;44.56
64544;BME280;50936;51.660;5.616;2023-11-21T04:01:00;100835.13;;;24.61;44.80
64544;BME280;50936;51.660;5.616;2023-11-21T04:03:49;100826.00;;;24.60;44.35
64544;BME280;50936;51.660;5.616;2023-11-21T04:06:37;100833.41;;;24.59;44.45
64544;BME280;50936;51.660;5.616;2023-11-21T04:09:24;100829.97;;;24.57;44.43
64544;BME280;50936;51.660;5.616;2023-11-21T04:12:12;100830.84;;;24.58;44.78
64544;BME280;50936;51.660;5.616;2023-11-21T04:14:59;100828.28;;;24.56;44.75
64544;BME280;50936;51.660;5.616;2023-11-21T04:17:46;100851.22;;;24.57;44.75
64544;BME280;50936;51.660;5.616;2023-11-21T04:20:33;100848.66;;;24.55;44.34
64544;BME280;50936;51.660;5.616;2023-11-21T04:23:20;100854.38;;;24.54;44.68
64544;BME280;50936;51.660;5.616;2023-11-21T04:26:07;100855.44;;;24.53;44.60
64544;BME280;50936;51.660;5.616;2023-11-21T04:28:55;100862.66;;;24.54;44.57
64544;BME280;50936;51.660;5.616;2023-11-21T04:31:42;100867.34;;;24.53;44.55
64544;BME280;50936;51.660;5.616;2023-11-21T04:34:29;100865.59;;;24.52;44.46
64544;BME280;50936;51.660;5.616;2023-11-21T04:37:17;100869.41;;;24.51;44.81
64544;BME280;50936;51.660;5.616;2023-11-21T04:40:05;100874.28;;;24.49;44.39
64544;BME280;50936;51.660;5.616;2023-11-21T04:42:53;100877.03;;;24.49;44.76
64544;BME280;50936;51.660;5.616;2023-11-21T04:45:41;100884.44;;;24.49;44.44
64544;BME280;50936;51.660;5.616;2023-11-21T04:48:28;100873.63;;;24.47;44.77
64544;BME280;50936;51.660;5.616;2023-11-21T04:51:16;100884.66;;;24.47;44.86
64544;BME280;50936;51.660;5.616;2023-11-21T04:54:03;100894.84;;;24.47;44.51
64544;BME280;50936;51.660;5.616;2023-11-21T04:56:52;100899.50;;;24.46;44.42
64544;BME280;50936;51.660;5.616;2023-11-21T04:59:39;100900.53;;;24.45;44.61
64544;BME280;50936;51.660;5.616;2023-11-21T05:02:27;100902.28;;;24.46;44.79
64544;BME280;50936;51.660;5.616;2023-11-21T05:05:21;100908.81;;;24.45;44.87
64544;BME280;50936;51.660;5.616;2023-11-21T05:08:09;100914.75;;;24.42;44.75
64544;BME280;50936;51.660;5.616;2023-11-21T05:10:56;100925.63;;;24.44;44.62
64544;BME280;50936;51.660;5.616;2023-11-21T05:13:44;100913.03;;;24.41;44.74
64544;BME280;50936;51.660;5.616;2023-11-21T05:16:31;100924.09;;;24.41;44.82
64544;BME280;50936;51.660;5.616;2023-11-21T05:19:18;100918.56;;;24.41;44.67
64544;BME280;50936;51.660;5.616;2023-11-21T05:22:05;100915.16;;;24.39;44.72
64544;BME280;50936;51.660;5.616;2023-11-21T05:24:53;100927.91;;;24.40;44.53
64544;BME280;50936;51.660;5.616;2023-11-21T05:27:40;100926.19;;;24.39;44.96
64544;BME280;50936;51.660;5.616;2023-11-21T05:30:27;100935.31;;;24.39;44.44
64544;BME280;50936;51.660;5.616;2023-11-21T05:33:14;100932.56;;;24.39;44.64
64544;BME280;50936;51.660;5.616;2023-11-21T05:36:02;100931.69;;;24.39;44.85
64544;BME280;50936;51.660;5.616;2023-11-21T05:38:49;100942.75;;;24.39;44.72
64544;BME280;50936;51.660;5.616;2023-11-21T05:41:37;100946.56;;;24.38;44.51
64544;BME280;50936;51.660;5.616;2023-11-21T05:44:24;100938.47;;;24.36;44.86
64544;BME280;50936;51.660;5.616;2023-11-21T05:47:11;100944.84;;;24.37;44.79
64544;BME280;50936;51.660;5.616;2023-11-21T05:50:00;100953.13;;;24.37;44.45
64544;BME280;50936;51.660;5.616;2023-11-21T05:52:48;100956.94;;;24.36;44.76
64544;BME280;50936;51.660;5.616;2023-11-21T05:55:35;100965.22;;;24.36;44.83
64544;BME280;50936;51.660;5.616;2023-11-21T05:58:22;100969.03;;;24.35;44.65
64544;BME280;50936;51.660;5.616;2023-11-21T06:01:10;100967.31;;;24.34;44.47
64544;BME280;50936;51.660;5.616;2023-11-21T06:03:59;100979.22;;;24.34;44.78
64544;BME280;50936;51.660;5.616;2023-11-21T06:06:48;100975.41;;;24.35;44.84
64544;BME280;50936;51.660;5.616;2023-11-21T06:09:37;100974.56;;;24.35;44.84
64544;BME280;50936;51.660;5.616;2023-11-21T06:12:24;100978.16;;;24.35;44.58
64544;BME280;50936;51.660;5.616;2023-11-21T06:15:12;100977.97;;;24.37;44.86
64544;BME280;50936;51.660;5.616;2023-11-21T06:18:03;100983.13;;;24.40;44.76
64544;BME280;50936;51.660;5.616;2023-11-21T06:20:50;100976.53;;;24.41;44.49
64544;BME280;50936;51.660;5.616;2023-11-21T06:23:40;100985.66;;;24.41;44.77
64544;BME280;50936;51.660;5.616;2023-11-21T06:26:27;100989.94;;;24.44;44.81
64544;BME280;50936;51.660;5.616;2023-11-21T06:29:15;100992.53;;;24.46;44.50
64544;BME280;50936;51.660;5.616;2023-11-21T06:32:03;101000.38;;;24.49;44.92
64544;BME280;50936;51.660;5.616;2023-11-21T06:34:51;101003.16;;;24.49;44.85
64544;BME280;50936;51.660;5.616;2023-11-21T06:37:41;100999.16;;;24.51;44.64
64544;BME280;50936;51.660;5.616;2023-11-21T06:40:29;100997.25;;;24.52;44.53
64544;BME280;50936;51.660;5.616;2023-11-21T06:43:16;101003.66;;;24.52;44.53
64544;BME280;50936;51.660;5.616;2023-11-21T06:46:04;101003.28;;;24.55;44.94
64544;BME280;50936;51.660;5.616;2023-11-21T06:48:52;101002.91;;;24.58;44.81
64544;BME280;50936;51.660;5.616;2023-11-21T06:51:39;101011.84;;;24.61;44.91
64544;BME280;50936;51.660;5.616;2023-11-21T06:54:26;101015.44;;;24.61;44.83
64544;BME280;50936;51.660;5.616;2023-11-21T06:57:13;101014.88;;;24.66;44.81
64544;BME280;50936;51.660;5.616;2023-11-21T07:00:01;101020.84;;;24.69;44.83
64544;BME280;50936;51.660;5.616;2023-11-21T07:02:51;101025.78;;;24.74;44.90
64544;BME280;50936;51.660;5.616;2023-11-21T07:05:38;101020.53;;;24.79;44.74
64544;BME280;50936;51.660;5.616;2023-11-21T07:08:25;101031.66;;;24.86;44.79
64544;BME280;50936;51.660;5.616;2023-11-21T07:11:13;101036.00;;;24.95;44.98
64544;BME280;50936;51.660;5.616;2023-11-21T07:14:00;101042.03;;;25.05;44.77
64544;BME280;50936;51.660;5.616;2023-11-21T07:16:54;101037.91;;;25.16;44.88
64544;BME280;50936;51.660;5.616;2023-11-21T07:19:41;101051.63;;;25.24;44.95
64544;BME280;50936;51.660;5.616;2023-11-21T07:22:28;101052.56;;;25.31;44.62
64544;BME280;50936;51.660;5.616;2023-11-21T07:25:16;101057.66;;;25.34;44.43
64544;BME280;50936;51.660;5.616;2023-11-21T07:28:03;101052.59;;;25.38;44.57
64544;BME280;50936;51.660;5.616;2023-11-21T07:30:52;101059.66;;;25.41;44.33
64544;BME280;50936;51.660;5.616;2023-11-21T07:33:39;101059.88;;;25.46;44.29
64544;BME280;50936;51.660;5.616;2023-11-21T07:36:27;101066.06;;;25.48;44.60
64544;BME280;50936;51.660;5.616;2023-11-21T07:39:14;101072.72;;;25.53;44.62
64544;BME280;50936;51.660;5.616;2023-11-21T07:42:03;101083.81;;;25.60;44.28
64544;BME280;50936;51.660;5.616;2023-11-21T07:44:51;101090.66;;;25.64;44.33
64544;BME280;50936;51.660;5.616;2023-11-21T07:47:38;101088.16;;;25.69;44.33
64544;BME280;50936;51.660;5.616;2023-11-21T07:50:26;101092.47;;;25.79;44.30
64544;BME280;50936;51.660;5.616;2023-11-21T07:53:14;101101.50;;;25.87;44.30
64544;BME280;50936;51.660;5.616;2023-11-21T07:56:08;101105.41;;;25.93;44.30
64544;BME280;50936;51.660;5.616;2023-11-21T07:58:56;101103.72;;;25.99;44.20
64544;BME280;50936;51.660;5.616;2023-11-21T08:01:43;101100.56;;;26.02;43.99
64544;BME280;50936;51.660;5.616;2023-11-21T08:04:32;101109.97;;;26.07;44.02
64544;BME280;50936;51.660;5.616;2023-11-21T08:07:21;101105.09;;;26.09;44.11
64544;BME280;50936;51.660;5.616;2023-11-21T08:10:08;101115.34;;;26.16;44.01
64544;BME280;50936;51.660;5.616;2023-11-21T08:12:57;101107.28;;;26.21;43.91
64544;BME280;50936;51.660;5.616;2023-11-21T08:15:45;101113.72;;;26.28;43.76
64544;BME280;50936;51.660;5.616;2023-11-21T08:18:33;101119.50;;;26.33;43.78
64544;BME280;50936;51.660;5.616;2023-11-21T08:21:21;101133.41;;;26.40;43.60
64544;BME280;50936;51.660;5.616;2023-11-21T08:24:10;101128.75;;;26.47;43.51
64544;BME280;50936;51.660;5.616;2023-11-21T08:26:58;101136.03;;;26.55;43.39
64544;BME280;50936;51.660;5.616;2023-11-21T08:29:45;101134.19;;;26.62;43.50
64544;BME280;50936;51.660;5.616;2023-11-21T08:32:33;101137.84;;;26.69;43.25
64544;BME280;50936;51.660;5.616;2023-11-21T08:35:20;101143.19;;;26.77;43.24
64544;BME280;50936;51.660;5.616;2023-11-21T08:38:07;101145.56;;;26.80;42.95
64544;BME280;50936;51.660;5.616;2023-11-21T08:40:56;101157.53;;;26.87;42.97
64544;BME280;50936;51.660;5.616;2023-11-21T08:43:44;101164.34;;;26.92;42.81
64544;BME280;50936;51.660;5.616;2023-11-21T08:46:31;101165.66;;;26.96;42.56
64544;BME280;50936;51.660;5.616;2023-11-21T08:49:20;101176.72;;;26.96;42.50
64544;BME280;50936;51.660;5.616;2023-11-21T08:52:08;101173.31;;;26.94;42.78
64544;BME280;50936;51.660;5.616;2023-11-21T08:54:55;101172.88;;;26.90;42.34
64544;BME280;50936;51.660;5.616;2023-11-21T08:57:49;101173.72;;;26.91;42.40
64544;BME280;50936;51.660;5.616;2023-11-21T09:00:39;101182.91;;;26.98;42.25
64544;BME280;50936;51.660;5.616;2023-11-21T09:03:27;101176.81;;;27.09;42.36
64544;BME280;50936;51.660;5.616;2023-11-21T09:06:15;101172.78;;;27.18;41.95
64544;BME280;50936;51.660;5.616;2023-11-21T09:09:02;101179.41;;;27.24;42.04
64544;BME280;50936;51.660;5.616;2023-11-21T09:11:52;101183.53;;;27.35;41.82
64544;BME280;50936;51.660;5.616;2023-11-21T09:14:39;101192.69;;;27.42;41.87
64544;BME280;50936;51.660;5.616;2023-11-21T09:17:27;101196.78;;;27.46;41.72
64544;BME280;50936;51.660;5.616;2023-11-21T09:20:14;101202.13;;;27.48;41.10
64544;BME280;50936;51.660;5.616;2023-11-21T09:23:02;101205.31;;;27.44;41.49
64544;BME280;50936;51.660;5.616;2023-11-21T09:25:49;101202.09;;;27.41;41.50
64544;BME280;50936;51.660;5.616;2023-11-21T09:28:38;101199.09;;;27.42;41.39
64544;BME280;50936;51.660;5.616;2023-11-21T09:31:26;101199.53;;;27.46;41.41
64544;BME280;50936;51.660;5.616;2023-11-21T09:34:14;101209.78;;;27.52;41.27
64544;BME280;50936;51.660;5.616;2023-11-21T09:37:04;101205.97;;;27.53;41.34
64544;BME280;50936;51.660;5.616;2023-11-21T09:39:53;101222.16;;;27.56;40.96
64544;BME280;50936;51.660;5.616;2023-11-21T09:42:45;101229.84;;;27.54;41.13
64544;BME280;50936;51.660;5.616;2023-11-21T09:45:35;101231.56;;;27.55;41.20
64544;BME280;50936;51.660;5.616;2023-11-21T09:48:25;101242.63;;;27.49;41.27
64544;BME280;50936;51.660;5.616;2023-11-21T09:51:13;101245.22;;;27.50;41.33
64544;BME280;50936;51.660;5.616;2023-11-21T09:54:03;101252.03;;;27.54;41.21
64544;BME280;50936;51.660;5.616;2023-11-21T09:56:55;101253.31;;;27.58;41.13
64544;BME280;50936;51.660;5.616;2023-11-21T09:59:45;101257.38;;;27.56;41.22
64544;BME280;50936;51.660;5.616;2023-11-21T10:02:38;101262.09;;;27.55;41.03
64544;BME280;50936;51.660;5.616;2023-11-21T10:05:27;101262.28;;;27.54;41.15
64544;BME280;50936;51.660;5.616;2023-11-21T10:08:15;101273.78;;;27.51;41.23
64544;BME280;50936;51.660;5.616;2023-11-21T10:11:04;101263.53;;;27.44;41.06
64544;BME280;50936;51.660;5.616;2023-11-21T10:13:54;101262.25;;;27.40;41.20
64544;BME280;50936;51.660;5.616;2023-11-21T10:16:45;101264.78;;;27.42;41.49
64544;BME280;50936;51.660;5.616;2023-11-21T10:19:36;101269.06;;;27.38;41.49
64544;BME280;50936;51.660;5.616;2023-11-21T10:22:24;101282.72;;;27.39;41.63
64544;BME280;50936;51.660;5.616;2023-11-21T10:25:13;101281.88;;;27.39;41.42
64544;BME280;50936;51.660;5.616;2023-11-21T10:28:04;101291.69;;;27.41;41.68
64544;BME280;50936;51.660;5.616;2023-11-21T10:30:52;101291.03;;;27.39;41.64
64544;BME280;50936;51.660;5.616;2023-11-21T10:33:39;101292.97;;;27.39;41.60
64544;BME280;50936;51.660;5.616;2023-11-21T10:36:27;101282.72;;;27.39;41.65
64544;BME280;50936;51.660;5.616;2023-11-21T10:39:21;101284.84;;;27.37;41.69
64544;BME280;50936;51.660;5.616;2023-11-21T10:42:10;101289.31;;;27.32;41.72
64544;BME280;50936;51.660;5.616;2023-11-21T10:44:58;101298.03;;;27.29;41.61
64544;BME280;50936;51.660;5.616;2023-11-21T10:47:45;101292.94;;;27.32;41.80
64544;BME280;50936;51.660;5.616;2023-11-21T10:50:33;101289.09;;;27.33;41.91
64544;BME280;50936;51.660;5.616;2023-11-21T10:53:22;101294.84;;;27.32;41.95
64544;BME280;50936;51.660;5.616;2023-11-21T10:56:10;101292.09;;;27.32;41.92
64544;BME280;50936;51.660;5.616;2023-11-21T10:59:15;101294.66;;;27.33;42.06
64544;BME280;50936;51.660;5.616;2023-11-21T11:02:05;101293.63;;;27.41;41.67
64544;BME280;50936;51.660;5.616;2023-11-21T11:05:12;101295.28;;;27.35;41.84
64544;BME280;50936;51.660;5.616;2023-11-21T11:08:08;101302.72;;;27.28;42.06
64544;BME280;50936;51.660;5.616;2023-11-21T11:10:59;101307.34;;;27.21;42.19
64544;BME280;50936;51.660;5.616;2023-11-21T11:13:46;101312.44;;;27.17;42.27
64544;BME280;50936;51.660;5.616;2023-11-21T11:16:33;101319.22;;;27.08;42.58
64544;BME280;50936;51.660;5.616;2023-11-21T11:19:21;101324.13;;;27.06;42.79
64544;BME280;50936;51.660;5.616;2023-11-21T11:25:47;101329.16;;;26.96;43.10
64544;BME280;50936;51.660;5.616;2023-11-21T11:35:07;101336.56;;;26.82;43.65
64544;BME280;50936;51.660;5.616;2023-11-21T11:38:04;101337.78;;;26.79;43.63
64544;BME280;50936;51.660;5.616;2023-11-21T11:40:54;101343.75;;;26.76;43.96
64544;BME280;50936;51.660;5.616;2023-11-21T11:43:41;101347.97;;;26.72;43.91
64544;BME280;50936;51.660;5.616;2023-11-21T11:46:42;101356.94;;;26.74;44.09
64544;BME280;50936;51.660;5.616;2023-11-21T11:49:32;101349.94;;;26.78;43.95
64544;BME280;50936;51.660;5.616;2023-11-21T11:52:41;101366.56;;;26.78;44.13
64544;BME280;50936;51.660;5.616;2023-11-21T11:55:29;101365.03;;;26.76;43.96
64544;BME280;50936;51.660;5.616;2023-11-21T11:58:17;101373.56;;;26.74;44.11
64544;BME280;50936;51.660;5.616;2023-11-21T12:01:06;101383.59;;;26.75;44.10
64544;BME280;50936;51.660;5.616;2023-11-21T12:07:00;101391.53;;;26.85;43.83
64544;BME280;50936;51.660;5.616;2023-11-21T12:09:49;101392.81;;;26.82;43.85
64544;BME280;50936;51.660;5.616;2023-11-21T12:12:37;101389.41;;;26.80;43.84
64544;BME280;50936;51.660;5.616;2023-11-21T12:15:25;101396.44;;;26.83;43.87
64544;BME280;50936;51.660;5.616;2023-11-21T12:18:15;101399.00;;;26.84;43.75
64544;BME280;50936;51.660;5.616;2023-11-21T12:21:03;101398.63;;;26.87;43.82
64544;BME280;50936;51.660;5.616;2023-11-21T12:23:50;101394.38;;;26.92;44.02
64544;BME280;50936;51.660;5.616;2023-11-21T12:26:38;101403.59;;;26.99;43.76
64544;BME280;50936;51.660;5.616;2023-11-21T12:29:25;101410.44;;;27.03;43.75
64544;BME280;50936;51.660;5.616;2023-11-21T12:32:12;101417.28;;;27.07;43.72
64544;BME280;50936;51.660;5.616;2023-11-21T12:35:03;101420.53;;;27.11;43.58
64544;BME280;50936;51.660;5.616;2023-11-21T12:37:54;101413.47;;;27.08;43.57
64544;BME280;50936;51.660;5.616;2023-11-21T12:40:44;101422.44;;;27.10;43.62
64544;BME280;50936;51.660;5.616;2023-11-21T12:43:32;101426.50;;;27.07;43.59
64544;BME280;50936;51.660;5.616;2023-11-21T12:46:21;101429.47;;;27.06;43.51
64544;BME280;50936;51.660;5.616;2023-11-21T12:49:10;101416.00;;;27.03;43.45
64544;BME280;50936;51.660;5.616;2023-11-21T12:52:04;101413.88;;;27.05;43.62
64544;BME280;50936;51.660;5.616;2023-11-21T12:54:53;101417.72;;;27.04;43.65
64544;BME280;50936;51.660;5.616;2023-11-21T12:57:42;101418.75;;;27.03;43.58
64544;BME280;50936;51.660;5.616;2023-11-21T13:00:33;101425.38;;;27.02;43.56
64544;BME280;50936;51.660;5.616;2023-11-21T13:03:25;101430.50;;;27.05;43.49
64544;BME280;50936;51.660;5.616;2023-11-21T13:06:14;101427.72;;;27.05;43.58
64544;BME280;50936;51.660;5.616;2023-11-21T13:09:03;101432.03;;;27.07;43.63
64544;BME280;50936;51.660;5.616;2023-11-21T13:11:59;101438.63;;;27.06;43.63
64544;BME280;50936;51.660;5.616;2023-11-21T13:14:50;101435.00;;;27.06;43.41
64544;BME280;50936;51.660;5.616;2023-11-21T13:17:38;101439.69;;;27.05;43.35
64544;BME280;50936;51.660;5.616;2023-11-21T13:20:26;101440.56;;;27.06;43.34
64544;BME280;50936;51.660;5.616;2023-11-21T13:23:14;101452.50;;;27.06;43.50
64544;BME280;50936;51.660;5.616;2023-11-21T13:26:03;101449.78;;;27.13;43.33
64544;BME280;50936;51.660;5.616;2023-11-21T13:28:53;101447.78;;;27.29;43.56
64544;BME280;50936;51.660;5.616;2023-11-21T13:31:40;101455.56;;;27.46;43.44
64544;BME280;50936;51.660;5.616;2023-11-21T13:34:28;101462.06;;;27.60;43.11
64544;BME280;50936;51.660;5.616;2023-11-21T13:37:20;101456.16;;;27.77;43.15
64544;BME280;50936;51.660;5.616;2023-11-21T13:40:07;101458.22;;;27.96;43.02
64544;BME280;50936;51.660;5.616;2023-11-21T13:43:01;101462.34;;;28.14;42.55
64544;BME280;50936;51.660;5.616;2023-11-21T13:45:52;101464.75;;;28.30;42.46
64544;BME280;50936;51.660;5.616;2023-11-21T13:48:57;101466.72;;;28.50;42.11
64544;BME280;50936;51.660;5.616;2023-11-21T13:51:44;101474.88;;;28.65;42.04
64544;BME280;50936;51.660;5.616;2023-11-21T13:54:35;101478.16;;;28.82;41.93
64544;BME280;50936;51.660;5.616;2023-11-21T13:57:22;101486.47;;;28.95;41.93
64544;BME280;50936;51.660;5.616;2023-11-21T14:00:09;101493.13;;;29.07;41.40
64544;BME280;50936;51.660;5.616;2023-11-21T14:03:13;101492.31;;;29.20;41.22
64544;BME280;50936;51.660;5.616;2023-11-21T14:06:06;101492.91;;;29.29;41.07
64544;BME280;50936;51.660;5.616;2023-11-21T14:09:07;101497.22;;;29.38;41.19
64544;BME280;50936;51.660;5.616;2023-11-21T14:11:55;101507.88;;;29.48;40.63
64544;BME280;50936;51.660;5.616;2023-11-21T14:14:44;101503.16;;;29.48;40.96
64544;BME280;50936;51.660;5.616;2023-11-21T14:17:32;101512.16;;;29.50;40.48
64544;BME280;50936;51.660;5.616;2023-11-21T14:20:21;101514.31;;;29.48;40.70
64544;BME280;50936;51.660;5.616;2023-11-21T14:23:09;101519.88;;;29.42;40.18
64544;BME280;50936;51.660;5.616;2023-11-21T14:25:58;101534.44;;;29.37;40.20
64544;BME280;50936;51.660;5.616;2023-11-21T14:28:47;101541.06;;;29.36;40.40
64544;BME280;50936;51.660;5.616;2023-11-21T14:31:35;101545.56;;;29.30;40.15
64544;BME280;50936;51.660;5.616;2023-11-21T14:34:23;101546.66;;;29.29;40.56
64544;BME280;50936;51.660;5.616;2023-11-21T14:37:11;101553.06;;;29.30;40.24
64544;BME280;50936;51.660;5.616;2023-11-21T14:40:00;101554.09;;;29.29;40.50
64544;BME280;50936;51.660;5.616;2023-11-21T14:42:48;101553.91;;;29.24;40.63
64544;BME280;50936;51.660;5.616;2023-11-21T14:45:35;101553.50;;;29.20;40.31
64544;BME280;50936;51.660;5.616;2023-11-21T14:48:22;101556.03;;;29.15;40.68
64544;BME280;50936;51.660;5.616;2023-11-21T14:51:28;101553.66;;;29.05;40.70
64544;BME280;50936;51.660;5.616;2023-11-21T14:54:18;101560.50;;;28.96;40.81